Time;durP1;ratioP1;P1;durP2;ratioP2;P2;SDS_P1;SDS_P2;PMS_P1;PMS_P2;Temp;Humidity;BMP_temperature;BMP_pressure;BME280_temperature;BME280_humidity;BME280_pressure;Samples;Min_cycle;Max_cycle;Signal;HPM_P1;HPM_P2
2023/05/23 00:01:23;;;;;;;14.70;6.40;;;;;;;;;;4981207;28;20228;-72
2023/05/23 00:03:52;;;;;;;10.13;7.00;;;;;;;;;;4992524;28;20188;-72
2023/05/23 00:06:22;;;;;;;11.83;7.30;;;;;;;;;;4992384;28;20203;-73
2023/05/23 00:08:50;;;;;;;9.47;5.80;;;;;;;;;;4990983;28;20208;-74
2023/05/23 00:11:19;;;;;;;9.03;6.27;;;;;;;;;;4998713;28;20639;-72
2023/05/23 00:13:45;;;;;;;8.50;5.60;;;;;;;;;;5009979;28;20667;-73
2023/05/23 00:16:12;;;;;;;9.53;6.43;;;;;;;;;;5001664;28;20239;-72
2023/05/23 00:18:41;;;;;;;10.47;6.20;;;;;;;;;;4983081;28;20188;-72
2023/05/23 00:21:08;;;;;;;9.73;6.00;;;;;;;;;;5007055;28;20978;-72
2023/05/23 00:23:37;;;;;;;12.73;6.50;;;;;;;;;;5009799;28;20184;-73
2023/05/23 00:26:03;;;;;;;11.07;6.07;;;;;;;;;;5008847;28;20195;-73
2023/05/23 00:28:30;;;;;;;8.93;5.43;;;;;;;;;;5008725;28;20223;-73
2023/05/23 00:30:57;;;;;;;7.90;5.83;;;;;;;;;;5009070;28;20187;-72
2023/05/23 00:33:25;;;;;;;10.00;6.53;;;;;;;;;;5009096;28;20223;-73
2023/05/23 00:35:51;;;;;;;10.80;6.80;;;;;;;;;;5007177;28;20560;-72
2023/05/23 00:38:18;;;;;;;10.50;6.23;;;;;;;;;;4991855;28;20275;-72
2023/05/23 00:40:45;;;;;;;7.60;5.97;;;;;;;;;;4991420;28;20270;-72
2023/05/23 00:43:12;;;;;;;11.23;6.13;;;;;;;;;;5004268;28;20200;-72
2023/05/23 00:45:38;;;;;;;12.00;6.77;;;;;;;;;;5007161;28;20710;-72
2023/05/23 00:48:06;;;;;;;9.33;6.00;;;;;;;;;;5008140;28;20258;-72
2023/05/23 00:50:33;;;;;;;11.83;6.37;;;;;;;;;;4975870;28;20595;-73
2023/05/23 00:53:00;;;;;;;8.73;5.60;;;;;;;;;;4979351;28;20263;-73
2023/05/23 00:55:27;;;;;;;10.00;6.07;;;;;;;;;;4970215;28;20358;-72
2023/05/23 00:57:56;;;;;;;12.10;6.67;;;;;;;;;;5007388;28;20559;-72
2023/05/23 01:00:24;;;;;;;10.17;6.70;;;;;;;;;;5008651;28;20315;-73
2023/05/23 01:02:50;;;;;;;9.13;6.40;;;;;;;;;;4991438;28;20199;-73
2023/05/23 01:05:18;;;;;;;8.77;5.57;;;;;;;;;;4974870;28;20194;-72
2023/05/23 01:07:46;;;;;;;10.50;6.20;;;;;;;;;;5008610;28;20539;-73
2023/05/23 01:10:13;;;;;;;9.70;6.40;;;;;;;;;;4989929;28;20192;-73
2023/05/23 01:12:57;;;;;;;10.13;5.87;;;;;;;;;;5008428;28;20192;-72
2023/05/23 01:15:30;;;;;;;8.80;6.13;;;;;;;;;;4990689;28;20188;-73
2023/05/23 01:18:07;;;;;;;11.07;6.53;;;;;;;;;;4991087;28;20292;-73
2023/05/23 01:20:40;;;;;;;7.87;6.00;;;;;;;;;;4971446;28;20594;-73
2023/05/23 01:23:07;;;;;;;10.93;6.13;;;;;;;;;;4982670;28;20203;-72
2023/05/23 01:25:58;;;;;;;8.73;6.10;;;;;;;;;;4990874;28;20192;-73
2023/05/23 01:28:30;;;;;;;8.50;5.63;;;;;;;;;;4990487;28;20278;-72
2023/05/23 01:30:57;;;;;;;9.70;6.33;;;;;;;;;;4973762;28;20291;-72
2023/05/23 01:33:24;;;;;;;11.77;6.40;;;;;;;;;;4989011;28;20551;-72
2023/05/23 01:35:51;;;;;;;10.67;6.30;;;;;;;;;;4987959;28;20288;-72
2023/05/23 01:38:21;;;;;;;9.40;6.50;;;;;;;;;;4991137;28;20275;-72
2023/05/23 01:40:48;;;;;;;10.47;6.07;;;;;;;;;;4991322;28;20208;-72
2023/05/23 02:18:18;;;;;;;11.70;7.17;;;;;;;;;;4984140;28;20193;-72
2023/05/23 02:20:47;;;;;;;11.23;6.73;;;;;;;;;;4984877;28;20236;-73
2023/05/23 02:23:14;;;;;;;8.67;6.37;;;;;;;;;;5001518;28;20188;-73
2023/05/23 02:25:40;;;;;;;10.57;6.83;;;;;;;;;;4974708;28;20203;-73
2023/05/23 02:28:08;;;;;;;9.43;6.57;;;;;;;;;;4997827;28;20639;-74
2023/05/23 02:30:35;;;;;;;9.50;6.63;;;;;;;;;;4990055;28;20196;-71
2023/05/23 02:33:06;;;;;;;10.10;6.23;;;;;;;;;;4943859;28;20839;-71
2023/05/23 02:35:33;;;;;;;10.80;6.13;;;;;;;;;;4989742;28;20211;-71
2023/05/23 02:38:00;;;;;;;10.87;6.43;;;;;;;;;;4990423;28;20224;-71
2023/05/23 02:40:27;;;;;;;10.00;6.53;;;;;;;;;;4959515;28;20278;-71
2023/05/23 02:43:01;;;;;;;17.97;7.33;;;;;;;;;;4989729;28;20455;-71
2023/05/23 02:45:30;;;;;;;13.10;7.40;;;;;;;;;;4993275;28;20254;-71
2023/05/23 02:47:57;;;;;;;11.63;7.40;;;;;;;;;;4994330;28;20505;-71
2023/05/23 02:50:25;;;;;;;10.37;7.73;;;;;;;;;;4994211;28;20209;-71
2023/05/23 02:52:52;;;;;;;10.97;7.57;;;;;;;;;;4990893;28;20689;-71
2023/05/23 02:55:20;;;;;;;11.90;8.10;;;;;;;;;;4991987;28;20227;-71
2023/05/23 02:57:50;;;;;;;10.10;7.33;;;;;;;;;;5009154;28;20614;-71
2023/05/23 03:00:17;;;;;;;11.50;7.27;;;;;;;;;;5011118;28;20215;-71
2023/05/23 03:02:48;;;;;;;8.93;6.50;;;;;;;;;;4992443;28;20196;-71
2023/05/23 03:05:15;;;;;;;10.87;6.23;;;;;;;;;;5010451;28;20200;-70
2023/05/23 03:07:42;;;;;;;11.03;6.63;;;;;;;;;;5009519;28;20199;-70
2023/05/23 03:10:09;;;;;;;9.67;6.27;;;;;;;;;;4975755;28;20204;-70
2023/05/23 03:12:37;;;;;;;8.57;6.23;;;;;;;;;;4993352;28;20211;-70
2023/05/23 03:15:03;;;;;;;9.33;5.93;;;;;;;;;;4994233;28;20246;-70
2023/05/23 03:17:30;;;;;;;7.93;6.13;;;;;;;;;;4989687;28;20230;-71
2023/05/23 03:19:57;;;;;;;11.73;6.80;;;;;;;;;;4992869;28;20670;-70
2023/05/23 03:22:24;;;;;;;8.57;6.33;;;;;;;;;;4992687;28;20188;-70
2023/05/23 03:24:51;;;;;;;9.43;6.17;;;;;;;;;;4985112;28;20255;-70
2023/05/23 03:27:17;;;;;;;8.67;6.10;;;;;;;;;;4990357;28;20192;-70
2023/05/23 03:29:47;;;;;;;10.03;6.63;;;;;;;;;;5010361;28;20682;-70
2023/05/23 03:32:14;;;;;;;10.30;6.50;;;;;;;;;;5009126;28;20304;-69
2023/05/23 03:34:41;;;;;;;12.63;6.80;;;;;;;;;;4993122;28;20196;-69
2023/05/23 03:37:10;;;;;;;17.47;6.33;;;;;;;;;;4977325;28;20201;-70
2023/05/23 03:39:36;;;;;;;10.13;6.10;;;;;;;;;;4990851;28;20196;-69
2023/05/23 03:42:06;;;;;;;15.50;7.10;;;;;;;;;;4992598;28;20974;-69
2023/05/23 03:44:33;;;;;;;11.57;6.53;;;;;;;;;;5001022;28;20196;-68
2023/05/23 03:47:02;;;;;;;10.77;6.97;;;;;;;;;;4997972;28;20930;-68
2023/05/23 03:49:29;;;;;;;13.50;6.80;;;;;;;;;;4980639;28;20196;-69
2023/05/23 03:51:55;;;;;;;30.90;8.33;;;;;;;;;;4973817;28;20291;-69
2023/05/23 03:54:23;;;;;;;16.73;6.90;;;;;;;;;;4990665;28;20212;-68
2023/05/23 03:56:50;;;;;;;15.30;6.53;;;;;;;;;;4988249;28;20197;-68
2023/05/23 03:59:17;;;;;;;17.53;7.70;;;;;;;;;;4979141;28;20560;-68
2023/05/23 04:01:45;;;;;;;11.97;7.20;;;;;;;;;;4965595;28;20220;-68
2023/05/23 04:04:12;;;;;;;10.57;6.43;;;;;;;;;;4969813;28;20250;-71
2023/05/23 04:06:40;;;;;;;13.63;6.80;;;;;;;;;;5010267;28;20184;-70
2023/05/23 04:09:07;;;;;;;10.60;5.90;;;;;;;;;;4976858;28;20207;-70
2023/05/23 04:11:38;;;;;;;8.40;5.93;;;;;;;;;;4993016;28;20192;-70
2023/05/23 04:14:07;;;;;;;11.73;6.03;;;;;;;;;;4992699;28;20263;-70
2023/05/23 04:16:35;;;;;;;12.63;6.23;;;;;;;;;;4950058;28;20323;-70
2023/05/23 04:19:05;;;;;;;10.40;5.90;;;;;;;;;;4950910;28;20189;-70
2023/05/23 04:21:33;;;;;;;17.37;6.63;;;;;;;;;;4974367;28;20231;-70
2023/05/23 04:24:08;;;;;;;10.10;6.00;;;;;;;;;;4982590;28;20196;-70
2023/05/23 04:26:35;;;;;;;17.03;6.00;;;;;;;;;;4972115;28;20203;-70
2023/05/23 04:29:03;;;;;;;13.17;5.77;;;;;;;;;;4972310;28;20220;-70
2023/05/23 04:31:30;;;;;;;16.53;7.30;;;;;;;;;;4987052;28;20200;-71
2023/05/23 04:33:57;;;;;;;21.23;7.47;;;;;;;;;;4948020;28;20213;-74
2023/05/23 04:36:24;;;;;;;10.23;6.73;;;;;;;;;;4985528;28;20200;-69
2023/05/23 04:38:53;;;;;;;15.13;6.57;;;;;;;;;;4962589;28;20208;-73
2023/05/23 04:41:23;;;;;;;14.23;6.60;;;;;;;;;;4976208;28;20227;-71
2023/05/23 04:44:10;;;;;;;19.90;7.33;;;;;;;;;;4967278;28;20223;-74
2023/05/23 04:46:41;;;;;;;18.30;8.23;;;;;;;;;;4977378;28;20275;-68
2023/05/23 04:49:15;;;;;;;17.93;7.80;;;;;;;;;;4964766;28;20208;-68
2023/05/23 04:51:43;;;;;;;13.60;7.00;;;;;;;;;;4955309;28;20232;-68
2023/05/23 04:54:23;;;;;;;15.33;6.50;;;;;;;;;;4953628;28;20656;-67
2023/05/23 04:56:53;;;;;;;17.10;7.70;;;;;;;;;;4972991;28;20291;-69
2023/05/23 04:59:22;;;;;;;12.53;6.40;;;;;;;;;;4986908;28;20193;-71
2023/05/23 05:01:49;;;;;;;12.53;6.97;;;;;;;;;;4985590;28;20328;-69
2023/05/23 05:04:17;;;;;;;12.03;6.43;;;;;;;;;;4957831;28;20193;-73
2023/05/23 05:06:44;;;;;;;14.33;6.50;;;;;;;;;;4971541;28;20722;-70
2023/05/23 05:09:11;;;;;;;11.07;6.40;;;;;;;;;;4972208;28;20200;-71
2023/05/23 05:11:42;;;;;;;12.43;6.30;;;;;;;;;;4989052;28;20211;-71
2023/05/23 05:14:09;;;;;;;11.67;6.60;;;;;;;;;;4956748;28;20228;-71
2023/05/23 05:16:36;;;;;;;15.27;6.80;;;;;;;;;;4967811;28;20318;-71
2023/05/23 05:19:03;;;;;;;13.97;6.97;;;;;;;;;;4972583;28;20211;-71
2023/05/23 05:21:30;;;;;;;13.50;6.40;;;;;;;;;;4972250;28;20619;-71
2023/05/23 05:23:58;;;;;;;11.90;6.43;;;;;;;;;;4972522;28;20220;-71
2023/05/23 05:26:26;;;;;;;14.80;6.73;;;;;;;;;;4956981;28;20197;-71
2023/05/23 05:28:53;;;;;;;11.57;6.63;;;;;;;;;;4989707;28;20599;-71
2023/05/23 05:31:20;;;;;;;9.87;6.40;;;;;;;;;;4973000;28;20212;-72
2023/05/23 05:33:48;;;;;;;12.80;6.43;;;;;;;;;;4956060;28;20196;-71
2023/05/23 05:36:15;;;;;;;15.07;6.33;;;;;;;;;;4972538;28;20207;-71
2023/05/23 05:38:43;;;;;;;14.37;6.60;;;;;;;;;;4956484;28;20414;-71
2023/05/23 05:41:11;;;;;;;13.40;6.77;;;;;;;;;;4956354;28;20261;-71
2023/05/23 05:43:42;;;;;;;14.00;6.33;;;;;;;;;;4971860;28;20205;-72
2023/05/23 05:46:09;;;;;;;14.40;6.60;;;;;;;;;;4972092;28;20188;-72
2023/05/23 05:48:36;;;;;;;14.07;7.10;;;;;;;;;;4972052;28;20197;-71
2023/05/23 05:51:06;;;;;;;15.87;7.10;;;;;;;;;;4971982;28;20319;-71
2023/05/23 05:53:33;;;;;;;12.40;6.70;;;;;;;;;;4956472;28;20201;-72
2023/05/23 05:56:01;;;;;;;15.43;6.77;;;;;;;;;;4972269;28;20937;-71
2023/05/23 05:58:29;;;;;;;12.47;6.43;;;;;;;;;;4955894;28;20205;-71
2023/05/23 06:00:59;;;;;;;17.30;7.00;;;;;;;;;;4972205;28;20683;-72
2023/05/23 06:03:27;;;;;;;12.57;6.60;;;;;;;;;;4972065;28;20204;-71
2023/05/23 06:05:54;;;;;;;18.43;6.20;;;;;;;;;;4972170;28;20196;-71
2023/05/23 06:08:21;;;;;;;14.50;7.30;;;;;;;;;;4972520;28;20224;-71
2023/05/23 06:10:48;;;;;;;18.77;6.63;;;;;;;;;;4971943;28;20197;-72
2023/05/23 06:13:15;;;;;;;14.23;6.63;;;;;;;;;;4989475;28;20526;-71
2023/05/23 06:15:46;;;;;;;20.10;6.80;;;;;;;;;;4961246;28;20306;-71
2023/05/23 06:18:16;;;;;;;18.93;6.67;;;;;;;;;;5009940;28;20279;-72
2023/05/23 06:20:43;;;;;;;18.23;6.53;;;;;;;;;;4979664;28;20261;-72
2023/05/23 06:23:14;;;;;;;14.67;5.93;;;;;;;;;;4995347;28;20298;-72
2023/05/23 06:25:44;;;;;;;14.60;5.73;;;;;;;;;;4995060;28;20706;-72
2023/05/23 06:28:11;;;;;;;17.03;5.80;;;;;;;;;;4994972;28;20202;-72
2023/05/23 06:30:38;;;;;;;16.70;6.23;;;;;;;;;;4979098;28;20196;-72
2023/05/23 06:33:06;;;;;;;12.63;5.30;;;;;;;;;;4979048;28;20203;-72
2023/05/23 06:35:34;;;;;;;18.60;5.83;;;;;;;;;;4977710;28;20200;-72
2023/05/23 06:38:02;;;;;;;11.90;5.93;;;;;;;;;;5012557;28;20196;-72
2023/05/23 06:40:28;;;;;;;18.00;6.20;;;;;;;;;;5011119;28;20231;-72
2023/05/23 06:42:56;;;;;;;16.67;6.47;;;;;;;;;;4994636;28;20223;-73
2023/05/23 06:45:40;;;;;;;20.50;5.90;;;;;;;;;;4995005;28;20207;-72
2023/05/23 06:48:12;;;;;;;16.33;5.30;;;;;;;;;;4995090;28;20196;-72
2023/05/23 06:50:39;;;;;;;14.80;5.30;;;;;;;;;;4995491;28;20291;-72
2023/05/23 06:53:08;;;;;;;13.10;5.07;;;;;;;;;;4978754;28;20220;-72
2023/05/23 06:55:36;;;;;;;11.00;4.60;;;;;;;;;;4994863;28;20196;-72
2023/05/23 06:58:05;;;;;;;10.80;4.23;;;;;;;;;;4994381;28;20207;-73
2023/05/23 07:00:33;;;;;;;6.60;3.80;;;;;;;;;;4994917;28;20765;-71
2023/05/23 07:03:08;;;;;;;7.73;3.50;;;;;;;;;;4994008;28;20755;-72
2023/05/23 07:05:35;;;;;;;9.20;3.70;;;;;;;;;;4994940;28;20211;-72
2023/05/23 07:08:09;;;;;;;7.73;3.93;;;;;;;;;;5011747;28;20583;-71
2023/05/23 07:10:40;;;;;;;5.83;3.90;;;;;;;;;;5012076;28;20307;-71
2023/05/23 07:13:21;;;;;;;8.77;4.00;;;;;;;;;;4994108;28;20196;-71
2023/05/23 07:15:48;;;;;;;9.27;3.97;;;;;;;;;;5011836;28;20184;-71
2023/05/23 07:18:15;;;;;;;8.83;3.57;;;;;;;;;;4994224;28;20586;-73
2023/05/23 07:20:42;;;;;;;7.57;3.07;;;;;;;;;;4994424;28;20211;-71
2023/05/23 07:23:14;;;;;;;7.97;3.60;;;;;;;;;;4994242;28;20219;-72
2023/05/23 07:25:43;;;;;;;6.53;3.37;;;;;;;;;;4994128;28;20809;-72
2023/05/23 07:28:30;;;;;;;6.70;2.90;;;;;;;;;;4993463;28;20343;-73
2023/05/23 07:30:57;;;;;;;5.87;3.13;;;;;;;;;;4993606;28;20200;-72
2023/05/23 07:33:24;;;;;;;5.63;2.97;;;;;;;;;;5011530;28;20240;-72
2023/05/23 07:35:56;;;;;;;4.97;2.93;;;;;;;;;;4993915;28;20283;-72
2023/05/23 07:38:25;;;;;;;5.90;3.03;;;;;;;;;;4994027;28;20223;-72
2023/05/23 07:40:51;;;;;;;7.23;3.43;;;;;;;;;;4993748;28;20234;-72
2023/05/23 07:43:36;;;;;;;7.50;2.90;;;;;;;;;;4979703;28;20211;-73
2023/05/23 07:46:03;;;;;;;5.93;2.83;;;;;;;;;;4977919;28;20301;-72
2023/05/23 07:48:30;;;;;;;4.90;2.87;;;;;;;;;;4993476;28;20200;-72
2023/05/23 07:50:58;;;;;;;4.57;2.73;;;;;;;;;;4993318;28;20224;-72
2023/05/23 07:53:26;;;;;;;3.30;2.43;;;;;;;;;;4993532;28;20196;-71
2023/05/23 07:55:56;;;;;;;4.40;2.73;;;;;;;;;;4993294;28;20750;-72
2023/05/23 07:58:26;;;;;;;4.50;2.60;;;;;;;;;;4983960;28;20248;-72
2023/05/23 08:00:53;;;;;;;7.57;3.00;;;;;;;;;;4974163;28;20267;-72
2023/05/23 08:03:40;;;;;;;5.13;2.93;;;;;;;;;;4991087;28;20222;-72
2023/05/23 08:06:13;;;;;;;7.20;2.77;;;;;;;;;;4974269;28;20291;-72
2023/05/23 08:08:40;;;;;;;4.80;2.70;;;;;;;;;;4990600;28;20787;-72
2023/05/23 08:11:07;;;;;;;4.07;2.57;;;;;;;;;;4974093;28;20232;-72
2023/05/23 08:13:41;;;;;;;6.83;3.10;;;;;;;;;;4973536;28;20670;-72
2023/05/23 08:16:36;;;;;;;5.07;2.77;;;;;;;;;;5002488;28;20245;-72
2023/05/23 08:19:12;;;;;;;3.23;2.60;;;;;;;;;;4978572;28;20200;-71
2023/05/23 08:21:39;;;;;;;4.43;2.57;;;;;;;;;;5010697;28;20279;-73
2023/05/23 08:24:06;;;;;;;3.93;2.60;;;;;;;;;;4993256;28;20357;-72
2023/05/23 08:26:35;;;;;;;4.20;2.40;;;;;;;;;;5011113;28;20193;-71
2023/05/23 08:29:04;;;;;;;2.87;2.53;;;;;;;;;;4977333;28;20203;-71
2023/05/23 08:31:31;;;;;;;3.70;2.63;;;;;;;;;;4993001;28;20202;-72
2023/05/23 08:34:03;;;;;;;4.53;3.07;;;;;;;;;;4993014;28;20200;-72
2023/05/23 08:36:33;;;;;;;3.63;2.57;;;;;;;;;;4976797;28;20528;-71
2023/05/23 08:39:00;;;;;;;4.00;2.67;;;;;;;;;;4992702;28;20200;-72
2023/05/23 08:41:29;;;;;;;6.07;2.30;;;;;;;;;;4992082;28;20192;-72
2023/05/23 08:44:09;;;;;;;4.57;2.47;;;;;;;;;;4978340;28;20229;-71
2023/05/23 08:46:44;;;;;;;3.57;2.60;;;;;;;;;;5010500;28;20193;-72
2023/05/23 08:49:20;;;;;;;3.70;2.63;;;;;;;;;;4992354;28;20204;-72
2023/05/23 08:51:47;;;;;;;3.33;2.40;;;;;;;;;;4992628;28;20632;-72
2023/05/23 08:54:21;;;;;;;5.43;2.40;;;;;;;;;;4976780;28;20204;-71
2023/05/23 08:56:47;;;;;;;2.73;2.47;;;;;;;;;;4992539;28;20562;-72
2023/05/23 08:59:14;;;;;;;6.33;2.53;;;;;;;;;;5010147;28;20607;-71
2023/05/23 09:01:42;;;;;;;4.70;2.70;;;;;;;;;;4992184;28;20742;-71
2023/05/23 09:04:11;;;;;;;3.83;2.30;;;;;;;;;;4991989;28;20201;-71
2023/05/23 09:06:54;;;;;;;2.73;2.53;;;;;;;;;;4992431;28;20291;-71
2023/05/23 09:09:21;;;;;;;7.77;2.70;;;;;;;;;;4992146;28;20667;-72
2023/05/23 09:11:49;;;;;;;6.47;2.60;;;;;;;;;;4992229;28;20196;-71
2023/05/23 09:14:16;;;;;;;4.33;2.37;;;;;;;;;;4976281;28;20234;-72
2023/05/23 09:16:50;;;;;;;3.70;2.40;;;;;;;;;;4979011;28;20231;-71
2023/05/23 09:19:21;;;;;;;3.80;2.80;;;;;;;;;;4972495;28;20572;-72
2023/05/23 09:21:54;;;;;;;7.83;2.70;;;;;;;;;;4972836;28;20800;-72
2023/05/23 09:24:35;;;;;;;3.40;2.57;;;;;;;;;;4972322;28;20246;-72
2023/05/23 09:27:06;;;;;;;5.53;2.50;;;;;;;;;;4957151;28;20200;-72
2023/05/23 09:29:42;;;;;;;4.20;2.70;;;;;;;;;;4956728;28;20262;-72
2023/05/23 09:32:13;;;;;;;4.30;2.80;;;;;;;;;;4972313;28;20319;-72
2023/05/23 09:35:03;;;;;;;4.00;2.70;;;;;;;;;;4969481;28;20207;-71
2023/05/23 09:37:31;;;;;;;3.40;2.57;;;;;;;;;;4989754;28;20185;-72
2023/05/23 09:39:59;;;;;;;3.57;2.60;;;;;;;;;;4972722;28;20192;-72
2023/05/23 09:42:35;;;;;;;5.73;2.80;;;;;;;;;;4956337;28;20299;-71
2023/05/23 09:45:02;;;;;;;5.37;2.60;;;;;;;;;;4956442;28;20232;-72
2023/05/23 09:47:30;;;;;;;4.37;2.70;;;;;;;;;;4989707;28;20244;-71
2023/05/23 09:49:57;;;;;;;6.60;2.63;;;;;;;;;;4989397;28;20207;-72
2023/05/23 09:52:24;;;;;;;4.57;2.40;;;;;;;;;;4955831;28;20205;-71
2023/05/23 09:54:53;;;;;;;6.57;3.00;;;;;;;;;;4955912;28;20227;-71
2023/05/23 09:57:20;;;;;;;3.73;2.70;;;;;;;;;;4971861;28;20217;-70
2023/05/23 09:59:52;;;;;;;5.87;2.40;;;;;;;;;;4972337;28;20639;-71
2023/05/23 10:02:23;;;;;;;5.93;2.80;;;;;;;;;;4972227;28;20209;-72
2023/05/23 10:04:50;;;;;;;5.33;2.83;;;;;;;;;;4972368;28;20279;-72
2023/05/23 10:07:17;;;;;;;8.20;2.67;;;;;;;;;;4955784;28;20319;-72
2023/05/23 10:09:51;;;;;;;5.93;2.40;;;;;;;;;;4972475;28;20664;-71
2023/05/23 10:12:48;;;;;;;3.00;2.33;;;;;;;;;;4972108;28;20189;-71
2023/05/23 10:15:16;;;;;;;5.13;2.50;;;;;;;;;;4969635;28;20209;-71
2023/05/23 10:18:01;;;;;;;3.27;2.20;;;;;;;;;;4976074;28;20227;-71
2023/05/23 10:20:32;;;;;;;3.97;2.43;;;;;;;;;;4991167;28;20195;-71
2023/05/23 10:23:00;;;;;;;4.80;2.80;;;;;;;;;;4975586;28;20220;-70
2023/05/23 10:25:27;;;;;;;4.70;2.70;;;;;;;;;;5008598;28;20187;-71
2023/05/23 10:27:57;;;;;;;3.90;2.67;;;;;;;;;;4991415;28;20184;-71
2023/05/23 10:30:28;;;;;;;3.87;2.57;;;;;;;;;;5008469;28;20183;-71
2023/05/23 10:32:55;;;;;;;3.87;2.60;;;;;;;;;;5008798;28;20210;-72
2023/05/23 10:35:32;;;;;;;3.70;2.60;;;;;;;;;;4991660;28;20258;-71
2023/05/23 10:38:02;;;;;;;5.97;2.43;;;;;;;;;;5008649;28;20188;-71
2023/05/23 10:40:29;;;;;;;3.40;2.40;;;;;;;;;;5008365;28;20180;-71
2023/05/23 10:43:02;;;;;;;3.47;2.30;;;;;;;;;;5008610;28;20341;-71
2023/05/23 10:45:29;;;;;;;3.43;2.50;;;;;;;;;;5008559;28;20251;-71
2023/05/23 10:47:58;;;;;;;6.37;2.50;;;;;;;;;;5008902;28;20901;-71
2023/05/23 10:50:32;;;;;;;3.53;2.33;;;;;;;;;;4991675;28;20196;-71
2023/05/23 10:53:02;;;;;;;3.93;2.40;;;;;;;;;;4991091;28;20682;-65
2023/05/23 10:55:33;;;;;;;3.57;2.23;;;;;;;;;;5008375;28;20282;-72
2023/05/23 10:58:16;;;;;;;5.17;2.60;;;;;;;;;;5006453;28;20243;-69
2023/05/23 11:01:01;;;;;;;3.23;2.30;;;;;;;;;;4992368;28;20197;-71
2023/05/23 11:03:32;;;;;;;3.60;2.30;;;;;;;;;;4998330;28;20215;-70
2023/05/23 11:05:59;;;;;;;5.80;2.63;;;;;;;;;;5013283;28;20242;-71
2023/05/23 11:08:28;;;;;;;6.47;2.40;;;;;;;;;;5013467;28;20225;-70
2023/05/23 11:11:13;;;;;;;3.90;2.20;;;;;;;;;;5013159;28;20188;-72
2023/05/23 11:13:52;;;;;;;2.67;2.30;;;;;;;;;;5012955;28;20189;-70
2023/05/23 11:16:23;;;;;;;3.53;2.30;;;;;;;;;;5013419;28;20223;-71
2023/05/23 11:18:50;;;;;;;2.97;2.00;;;;;;;;;;4996364;28;20258;-71
2023/05/23 11:21:16;;;;;;;5.37;2.80;;;;;;;;;;5013543;28;20551;-71
2023/05/23 11:23:43;;;;;;;6.00;2.67;;;;;;;;;;4995746;28;20224;-71
2023/05/23 11:26:27;;;;;;;2.67;2.43;;;;;;;;;;5013055;28;20200;-71
2023/05/23 11:28:54;;;;;;;3.40;2.40;;;;;;;;;;5013996;28;20234;-71
2023/05/23 11:31:22;;;;;;;3.33;2.40;;;;;;;;;;5013295;28;20192;-71
2023/05/23 11:33:52;;;;;;;3.53;2.10;;;;;;;;;;4996275;28;20563;-71
2023/05/23 11:36:21;;;;;;;2.43;2.23;;;;;;;;;;5013118;28;20190;-72
2023/05/23 11:38:49;;;;;;;5.93;2.47;;;;;;;;;;5012977;28;20200;-71
2023/05/23 11:41:16;;;;;;;4.50;2.50;;;;;;;;;;5012991;28;20733;-71
2023/05/23 11:43:51;;;;;;;4.20;2.27;;;;;;;;;;5013225;28;20311;-71
2023/05/23 11:46:19;;;;;;;2.77;2.10;;;;;;;;;;4995138;28;20878;-71
2023/05/23 11:48:46;;;;;;;3.87;2.33;;;;;;;;;;5012722;28;20687;-71
2023/05/23 11:51:13;;;;;;;5.07;2.50;;;;;;;;;;4994748;28;20287;-72
2023/05/23 11:53:40;;;;;;;3.73;2.40;;;;;;;;;;4995464;28;20517;-71
2023/05/23 11:56:07;;;;;;;2.80;2.20;;;;;;;;;;5012280;28;20618;-72
2023/05/23 11:58:35;;;;;;;4.03;2.57;;;;;;;;;;4995064;28;20607;-72
2023/05/23 12:01:06;;;;;;;3.20;2.43;;;;;;;;;;4994646;28;20231;-72
2023/05/23 12:03:33;;;;;;;5.50;2.40;;;;;;;;;;5012293;28;20749;-72
2023/05/23 12:06:01;;;;;;;4.37;2.50;;;;;;;;;;4995399;28;20200;-72
2023/05/23 12:08:28;;;;;;;5.97;2.40;;;;;;;;;;5012890;28;20192;-71
2023/05/23 12:10:59;;;;;;;5.43;2.43;;;;;;;;;;4995605;28;20238;-72
2023/05/23 12:13:27;;;;;;;4.93;2.50;;;;;;;;;;4994611;28;20258;-71
2023/05/23 12:15:57;;;;;;;5.93;2.40;;;;;;;;;;5011848;28;20195;-72
2023/05/23 12:18:28;;;;;;;3.57;2.40;;;;;;;;;;5012902;28;20204;-71
2023/05/23 12:20:58;;;;;;;5.53;2.43;;;;;;;;;;4999489;28;20210;-72
2023/05/23 12:23:26;;;;;;;3.40;2.30;;;;;;;;;;4995384;28;20224;-71
2023/05/23 12:25:54;;;;;;;5.37;2.27;;;;;;;;;;5012209;28;20198;-71
2023/05/23 12:28:21;;;;;;;5.13;2.30;;;;;;;;;;5012234;28;20269;-71
2023/05/23 12:30:48;;;;;;;6.43;2.63;;;;;;;;;;5009228;28;20271;-70
2023/05/23 12:33:16;;;;;;;4.33;2.60;;;;;;;;;;5011541;28;20191;-71
2023/05/23 12:35:44;;;;;;;5.83;2.30;;;;;;;;;;4993358;28;20540;-71
2023/05/23 12:38:13;;;;;;;3.97;2.30;;;;;;;;;;4992578;28;20231;-72
2023/05/23 12:40:40;;;;;;;4.97;2.50;;;;;;;;;;5010268;28;20196;-73
2023/05/23 12:43:07;;;;;;;3.83;2.23;;;;;;;;;;4992585;28;20270;-74
2023/05/23 12:45:35;;;;;;;4.00;2.30;;;;;;;;;;4977184;28;20222;-73
2023/05/23 12:48:03;;;;;;;5.80;2.27;;;;;;;;;;4993006;28;20188;-73
2023/05/23 12:50:30;;;;;;;7.03;4.40;;;;;;;;;;4992845;28;20187;-73
2023/05/23 12:52:57;;;;;;;6.07;3.50;;;;;;;;;;4992422;28;20184;-73
2023/05/23 12:55:24;;;;;;;4.90;3.53;;;;;;;;;;5010064;28;20679;-73
2023/05/23 12:57:50;;;;;;;6.00;3.90;;;;;;;;;;5009711;28;20224;-73
2023/05/23 13:00:18;;;;;;;7.37;4.50;;;;;;;;;;5009993;28;20261;-72
2023/05/23 13:02:45;;;;;;;6.63;4.13;;;;;;;;;;5010204;28;20192;-71
2023/05/23 13:05:12;;;;;;;3.13;2.77;;;;;;;;;;4992893;28;20179;-70
2023/05/23 13:07:44;;;;;;;5.17;3.00;;;;;;;;;;4991805;28;20208;-69
2023/05/23 13:10:12;;;;;;;3.50;2.57;;;;;;;;;;4991354;28;20594;-69
2023/05/23 13:12:46;;;;;;;5.27;2.57;;;;;;;;;;5011399;28;20206;-68
2023/05/23 13:15:12;;;;;;;3.83;2.53;;;;;;;;;;5011698;28;20196;-69
2023/05/23 13:17:39;;;;;;;3.43;2.03;;;;;;;;;;5011062;28;20232;-68
2023/05/23 13:20:09;;;;;;;3.77;2.23;;;;;;;;;;5011020;28;20203;-69
2023/05/23 13:22:36;;;;;;;3.20;2.10;;;;;;;;;;5011028;28;20192;-67
2023/05/23 13:25:06;;;;;;;5.17;2.77;;;;;;;;;;5011075;28;20188;-67
2023/05/23 13:27:33;;;;;;;5.67;2.80;;;;;;;;;;4966605;28;20267;-70
2023/05/23 13:30:00;;;;;;;4.27;2.67;;;;;;;;;;4971405;28;20264;-71
2023/05/23 13:32:30;;;;;;;5.67;2.83;;;;;;;;;;4988873;28;20678;-70
2023/05/23 13:34:57;;;;;;;4.37;2.53;;;;;;;;;;4989771;28;20196;-70
2023/05/23 13:37:25;;;;;;;2.40;2.20;;;;;;;;;;4991975;28;20189;-70
2023/05/23 13:39:52;;;;;;;3.63;2.30;;;;;;;;;;4971110;28;20276;-73
2023/05/23 13:42:19;;;;;;;4.37;2.37;;;;;;;;;;4985383;28;20209;-69
2023/05/23 13:44:45;;;;;;;3.60;2.20;;;;;;;;;;5007440;28;20204;-69
2023/05/23 13:47:13;;;;;;;4.13;2.40;;;;;;;;;;4982966;28;20204;-72
2023/05/23 13:49:40;;;;;;;3.23;2.40;;;;;;;;;;4973757;28;20188;-73
2023/05/23 13:52:09;;;;;;;2.90;2.60;;;;;;;;;;4999890;28;20176;-75
2023/05/23 13:54:36;;;;;;;4.03;2.27;;;;;;;;;;4989727;28;20597;-68
2023/05/23 13:57:03;;;;;;;2.87;2.40;;;;;;;;;;4977856;28;20217;-70
2023/05/23 13:59:30;;;;;;;6.83;2.40;;;;;;;;;;5008297;28;20250;-74
2023/05/23 14:01:57;;;;;;;8.07;2.73;;;;;;;;;;4986840;28;20192;-72
2023/05/23 14:04:24;;;;;;;4.13;2.50;;;;;;;;;;4989972;28;20216;-70
2023/05/23 14:06:51;;;;;;;5.20;2.77;;;;;;;;;;4969298;28;20193;-70
2023/05/23 14:09:18;;;;;;;4.80;2.50;;;;;;;;;;5004930;28;20701;-69
2023/05/23 14:11:50;;;;;;;2.77;2.33;;;;;;;;;;4989331;28;20722;-69
2023/05/23 14:14:17;;;;;;;4.30;2.30;;;;;;;;;;4988200;28;20971;-70
2023/05/23 14:16:44;;;;;;;6.17;2.80;;;;;;;;;;4986932;28;20259;-71
2023/05/23 14:19:12;;;;;;;4.43;2.30;;;;;;;;;;4984222;28;20184;-67
2023/05/23 14:21:40;;;;;;;3.03;2.33;;;;;;;;;;5005137;28;20192;-71
2023/05/23 14:24:31;;;;;;;5.93;2.50;;;;;;;;;;5005088;28;20204;-68
2023/05/23 14:26:58;;;;;;;5.00;2.60;;;;;;;;;;5004072;28;20768;-68
2023/05/23 14:29:25;;;;;;;5.37;2.50;;;;;;;;;;5005300;28;20189;-68
2023/05/23 14:31:51;;;;;;;3.90;2.47;;;;;;;;;;5003584;28;20671;-68
2023/05/23 14:34:18;;;;;;;3.17;2.47;;;;;;;;;;4993573;28;20228;-69
2023/05/23 14:36:45;;;;;;;3.03;2.33;;;;;;;;;;4985021;28;20184;-73
2023/05/23 14:39:12;;;;;;;3.77;2.80;;;;;;;;;;5006832;28;20207;-70
2023/05/23 14:41:39;;;;;;;4.63;2.33;;;;;;;;;;4992493;28;20246;-75
2023/05/23 14:44:07;;;;;;;3.23;2.33;;;;;;;;;;4992410;28;21036;-72
2023/05/23 14:46:34;;;;;;;3.70;2.30;;;;;;;;;;5009735;28;20246;-71
2023/05/23 14:49:00;;;;;;;3.93;2.47;;;;;;;;;;4974459;28;20242;-69
2023/05/23 14:51:27;;;;;;;3.53;2.70;;;;;;;;;;5009772;28;20555;-70
2023/05/23 14:54:14;;;;;;;5.10;2.77;;;;;;;;;;5009662;28;20199;-72
2023/05/23 14:56:42;;;;;;;4.40;2.60;;;;;;;;;;5008512;28;20223;-72
2023/05/23 14:59:08;;;;;;;3.63;2.63;;;;;;;;;;4966664;28;20661;-72
2023/05/23 15:01:35;;;;;;;6.00;2.50;;;;;;;;;;5009383;28;20218;-70
2023/05/23 15:07:20;;;;;;;3.57;2.67;;;;;;;;;;4908459;29;20213;-72
2023/05/23 15:09:47;;;;;;;3.03;2.40;;;;;;;;;;4908226;29;20214;-71
2023/05/23 15:12:17;;;;;;;4.30;2.50;;;;;;;;;;4950355;28;20202;-70
2023/05/23 15:14:49;;;;;;;3.57;2.67;;;;;;;;;;4986262;28;20289;-69
2023/05/23 15:17:21;;;;;;;4.77;2.50;;;;;;;;;;5005329;28;20308;-68
2023/05/23 15:19:53;;;;;;;5.20;3.10;;;;;;;;;;4986898;28;20203;-68
2023/05/23 15:22:22;;;;;;;8.10;3.53;;;;;;;;;;5001548;28;20279;-69
2023/05/23 15:25:06;;;;;;;5.07;2.57;;;;;;;;;;4994653;28;20309;-68
2023/05/23 15:27:32;;;;;;;7.57;3.27;;;;;;;;;;5010517;28;20189;-67
2023/05/23 15:29:59;;;;;;;6.90;3.40;;;;;;;;;;5009376;28;20214;-67